Terminal Aerodrome Forecast
Issued by NWS

Home | Current Version | Previous Version | Text Only | Print | Product List | Glossary On
Versions: 1 2 3 4 5 6 7 8 9 10 11 12 13 14 15 16
000
FTUS41 KBTV 190528
TAFSLK
TAF
KSLK 190528Z 1906/2006 25008KT 3SM BR OVC008
      TEMPO 1906/1908 1SM -SHSN BR OVC005
     FM191200 26005KT 5SM BR OVC008
     FM191400 26005KT P6SM OVC008
     FM191800 25006KT P6SM OVC015
     FM200300 00000KT P6SM OVC015=

USA.gov is the U.S. government's official web portal to all federal, state and local government web resources and services.